createdAt,value
2019-04-11T00:01:05.973Z,100346.08
2019-04-11T00:03:33.520Z,100340.47
2019-04-11T00:06:01.413Z,100345.94
2019-04-11T00:08:28.773Z,100350.44
2019-04-11T00:10:57.573Z,100351.88
2019-04-11T00:13:28.324Z,100351.63
2019-04-11T00:15:54.924Z,100346.75
2019-04-11T00:18:22.871Z,100345.18
2019-04-11T00:20:51.178Z,100356.38
2019-04-11T00:23:18.504Z,100346.47
2019-04-11T00:25:48.147Z,100346.66
2019-04-11T00:28:15.417Z,100344.75
2019-04-11T00:30:42.437Z,100351.91
2019-04-11T00:33:09.887Z,100352.47
2019-04-11T00:35:37.028Z,100352.17
2019-04-11T00:38:04.193Z,100351.41
2019-04-11T00:40:31.524Z,100359.05
2019-04-11T00:42:58.981Z,100359.78
2019-04-11T00:45:29.646Z,100364.84
2019-04-11T00:47:57.954Z,100364.41
2019-04-11T00:50:25.327Z,100359.92
2019-04-11T00:52:52.429Z,100359.04
2019-04-11T00:55:19.679Z,100366.56
2019-04-11T00:57:47.376Z,100366.59
2019-04-11T01:00:15.220Z,100361.22
2019-04-11T01:02:43.339Z,100359.94
2019-04-11T01:05:11.137Z,100363.06
2019-04-11T01:07:38.728Z,100368.52
2019-04-11T01:10:06.881Z,100360.14
2019-04-11T01:12:34.429Z,100365.73
2019-04-11T01:15:04.912Z,100361.13
2019-04-11T01:17:32.246Z,100369.99
2019-04-11T01:19:59.601Z,100377.72
2019-04-11T01:22:26.629Z,100374.38
2019-04-11T01:24:53.684Z,100380.06
2019-04-11T01:27:21.615Z,100381.14
2019-04-11T01:29:49.511Z,100377.43
2019-04-11T01:32:17.988Z,100374.62
2019-04-11T01:34:45.259Z,100372.70
2019-04-11T01:37:16.299Z,100372.36
2019-04-11T01:39:49.999Z,100376.70
2019-04-11T01:42:17.697Z,100369.75
2019-04-11T01:44:47.481Z,100377.27
2019-04-11T01:47:20.913Z,100379.02
2019-04-11T01:49:48.475Z,100382.91
2019-04-11T01:52:15.476Z,100382.06
2019-04-11T01:54:42.812Z,100380.73
2019-04-11T01:57:11.765Z,100385.42
2019-04-11T01:59:39.585Z,100383.86
2019-04-11T02:02:26.441Z,100390.55
2019-04-11T02:05:00.757Z,100387.36
2019-04-11T02:07:28.894Z,100384.55
2019-04-11T02:09:56.766Z,100391.37
2019-04-11T02:12:23.854Z,100397.16
2019-04-11T02:14:52.093Z,100394.55
2019-04-11T02:17:19.355Z,100391.42
2019-04-11T02:19:46.671Z,100388.57
2019-04-11T02:22:35.763Z,100390.76
2019-04-11T02:25:15.004Z,100393.84
2019-04-11T02:27:42.372Z,100392.13
2019-04-11T02:30:11.833Z,100395.55
2019-04-11T02:32:40.462Z,100400.09
2019-04-11T02:35:08.703Z,100403.85
2019-04-11T02:37:38.009Z,100400.91
2019-04-11T02:40:07.527Z,100403.00
2019-04-11T02:42:35.753Z,100406.94
2019-04-11T02:45:19.814Z,100403.27
2019-04-11T02:47:35.661Z,100401.81
2019-04-11T02:50:03.648Z,100412.80
2019-04-11T02:52:31.315Z,100415.42
2019-04-11T02:54:58.790Z,100413.55
2019-04-11T02:57:26.551Z,100419.70
2019-04-11T02:59:56.024Z,100422.78
2019-04-11T03:02:23.848Z,100428.94
2019-04-11T03:04:52.857Z,100434.20
2019-04-11T03:07:20.583Z,100435.69
2019-04-11T03:09:48.806Z,100439.09
2019-04-11T03:12:19.087Z,100438.77
2019-04-11T03:15:05.624Z,100452.16
2019-04-11T03:17:23.030Z,100454.04
2019-04-11T03:19:59.472Z,100452.59
2019-04-11T03:22:16.180Z,100455.86
2019-04-11T03:24:44.754Z,100453.69
2019-04-11T03:27:12.137Z,100457.14
2019-04-11T03:29:40.790Z,100463.28
2019-04-11T03:32:51.306Z,100463.25
2019-04-11T03:35:31.624Z,100469.73
2019-04-11T03:37:40.023Z,100463.36
2019-04-11T03:40:00.751Z,100469.41
2019-04-11T03:42:25.027Z,100471.04
2019-04-11T03:44:46.398Z,100480.50
2019-04-11T03:47:25.065Z,100477.63
2019-04-11T03:49:49.101Z,100477.09
2019-04-11T03:52:12.231Z,100479.96
2019-04-11T03:54:40.993Z,100481.59
2019-04-11T03:57:09.872Z,100482.02
2019-04-11T03:59:40.728Z,100483.38
2019-04-11T04:02:16.438Z,100490.48
2019-04-11T04:04:45.677Z,100492.64
2019-04-11T04:07:14.896Z,100496.02
2019-04-11T04:09:43.824Z,100492.62
2019-04-11T04:12:13.405Z,100495.35
2019-04-11T04:15:04.578Z,100501.89
2019-04-11T04:18:05.695Z,100498.86
2019-04-11T04:21:01.976Z,100502.75
2019-04-11T04:23:35.779Z,100508.39
2019-04-11T04:26:09.580Z,100514.67
2019-04-11T04:28:35.766Z,100512.59
2019-04-11T04:31:04.613Z,100522.49
2019-04-11T04:33:35.071Z,100518.65
2019-04-11T04:36:02.360Z,100523.19
2019-04-11T04:38:31.608Z,100523.77
2019-04-11T04:41:10.005Z,100528.09
2019-04-11T04:43:29.392Z,100528.59
2019-04-11T04:46:13.722Z,100539.62
2019-04-11T04:48:27.147Z,100539.20
2019-04-11T04:50:57.102Z,100538.41
2019-04-11T04:53:26.672Z,100549.94
2019-04-11T04:55:54.266Z,100552.09
2019-04-11T04:58:24.855Z,100555.48
2019-04-11T05:00:54.284Z,100555.29
2019-04-11T05:03:26.825Z,100561.67
2019-04-11T05:05:58.311Z,100562.17
2019-04-11T05:08:30.617Z,100561.52
2019-04-11T05:11:04.543Z,100560.16
2019-04-11T05:13:34.437Z,100565.50
2019-04-11T05:16:16.055Z,100563.42
2019-04-11T05:18:37.366Z,100565.34
2019-04-11T05:21:10.700Z,100561.14
2019-04-11T05:23:42.850Z,100567.12
2019-04-11T05:26:17.296Z,100571.28
2019-04-11T05:28:47.290Z,100576.92
2019-04-11T05:31:20.553Z,100583.48
2019-04-11T05:33:47.863Z,100575.81
2019-04-11T05:36:14.952Z,100584.00
2019-04-11T05:38:42.327Z,100587.41
2019-04-11T05:41:12.172Z,100583.08
2019-04-11T05:43:40.113Z,100593.02
2019-04-11T05:46:26.455Z,100587.33
2019-04-11T05:48:58.946Z,100600.92
2019-04-11T05:51:24.908Z,100590.99
2019-04-11T05:53:54.506Z,100595.63
2019-04-11T05:56:27.816Z,100600.30
2019-04-11T05:58:59.859Z,100604.94
2019-04-11T06:01:36.243Z,100602.70
2019-04-11T06:04:13.132Z,100613.44
2019-04-11T06:07:00.138Z,100607.95
2019-04-11T06:09:33.746Z,100613.44
2019-04-11T06:12:21.651Z,100608.27
2019-04-11T06:14:58.422Z,100610.52
2019-04-11T06:17:27.677Z,100612.34
2019-04-11T06:20:29.789Z,100609.52
2019-04-11T06:23:05.148Z,100616.36
2019-04-11T06:25:43.617Z,100624.08
2019-04-11T06:28:18.011Z,100624.02
2019-04-11T06:31:10.723Z,100624.88
2019-04-11T06:33:42.783Z,100628.41
2019-04-11T06:36:35.557Z,100618.20
2019-04-11T06:39:16.534Z,100626.26
2019-04-11T06:42:07.495Z,100621.80
2019-04-11T06:44:50.129Z,100628.36
2019-04-11T06:47:47.398Z,100617.50
2019-04-11T06:50:33.353Z,100628.24
2019-04-11T06:53:00.727Z,100638.98
2019-04-11T06:55:45.134Z,100629.36
2019-04-11T06:58:16.355Z,100625.17
2019-04-11T07:00:49.909Z,100622.83
2019-04-11T07:03:25.513Z,100638.67
2019-04-11T07:05:51.074Z,100633.19
2019-04-11T07:08:20.237Z,100630.34
2019-04-11T07:10:55.434Z,100631.92
2019-04-11T07:13:46.250Z,100629.83
2019-04-11T07:16:15.431Z,100635.16
2019-04-11T07:19:17.728Z,100635.00
2019-04-11T07:21:45.943Z,100630.10
2019-04-11T07:24:32.429Z,100640.92
2019-04-11T07:27:09.713Z,100626.76
2019-04-11T07:30:05.481Z,100639.73
2019-04-11T07:32:34.259Z,100639.84
2019-04-11T07:35:19.707Z,100635.80
2019-04-11T07:37:49.359Z,100639.06
2019-04-11T07:40:36.678Z,100637.53
2019-04-11T07:43:13.316Z,100635.51
2019-04-11T07:46:09.033Z,100636.67
2019-04-11T07:48:38.935Z,100632.14
2019-04-11T07:51:17.482Z,100625.56
2019-04-11T07:53:48.120Z,100640.80
2019-04-11T07:56:39.917Z,100638.27
2019-04-11T07:59:16.574Z,100638.66
2019-04-11T08:02:10.288Z,100638.55
2019-04-11T08:04:57.566Z,100635.10
2019-04-11T08:07:44.812Z,100645.09
2019-04-11T08:10:16.853Z,100662.41
2019-04-11T08:12:43.878Z,100643.05
2019-04-11T08:15:41.925Z,100638.00
2019-04-11T08:18:32.728Z,100634.62
2019-04-11T08:21:26.205Z,100652.55
2019-04-11T08:23:56.269Z,100642.86
2019-04-11T08:26:52.584Z,100647.84
2019-04-11T08:29:24.343Z,100631.70
2019-04-11T08:32:11.697Z,100639.62
2019-04-11T08:34:46.479Z,100641.59
2019-04-11T08:37:31.656Z,100645.34
2019-04-11T08:39:59.683Z,100645.17
2019-04-11T08:42:50.739Z,100643.23
2019-04-11T08:45:19.556Z,100650.63
2019-04-11T08:47:52.670Z,100646.07
2019-04-11T08:50:21.332Z,100647.28
2019-04-11T08:53:08.749Z,100649.72
2019-04-11T08:55:55.298Z,100641.32
2019-04-11T08:58:23.159Z,100650.20
2019-04-11T09:00:56.169Z,100646.28
2019-04-11T09:03:59.793Z,100633.48
2019-04-11T09:06:24.889Z,100628.61
2019-04-11T09:09:11.124Z,100628.66
2019-04-11T09:11:58.330Z,100636.08
2019-04-11T09:14:46.385Z,100640.83
2019-04-11T09:17:34.724Z,100640.06
2019-04-11T09:20:38.091Z,100640.42
2019-04-11T09:23:11.430Z,100635.75
2019-04-11T09:26:14.034Z,100627.74
2019-04-11T09:28:46.436Z,100631.06
2019-04-11T09:31:42.172Z,100637.43
2019-04-11T09:34:28.555Z,100632.88
2019-04-11T09:36:58.824Z,100628.65
2019-04-11T09:39:47.571Z,100629.98
2019-04-11T09:42:43.494Z,100637.44
2019-04-11T09:45:45.788Z,100612.12
2019-04-11T09:48:42.279Z,100633.55
2019-04-11T09:51:33.870Z,100633.38
2019-04-11T09:54:22.172Z,100628.14
2019-04-11T09:57:18.539Z,100622.36
2019-04-11T10:00:18.542Z,100616.41
2019-04-11T10:02:53.007Z,100608.78
2019-04-11T10:05:27.238Z,100618.62
2019-04-11T10:08:10.690Z,100601.65
2019-04-11T10:11:17.749Z,100605.02
2019-04-11T10:14:17.509Z,100612.92
2019-04-11T10:17:04.431Z,100613.03
2019-04-11T10:19:54.337Z,100622.23
2019-04-11T10:22:41.535Z,100617.38
2019-04-11T10:25:32.801Z,100611.38
2019-04-11T10:28:29.541Z,100607.33
2019-04-11T10:31:04.242Z,100609.97
2019-04-11T10:33:44.791Z,100606.31
2019-04-11T10:36:34.977Z,100611.56
2019-04-11T10:39:27.662Z,100597.56
2019-04-11T10:42:02.220Z,100605.88
2019-04-11T10:45:00.407Z,100607.17
2019-04-11T10:47:29.184Z,100613.04
2019-04-11T10:50:19.472Z,100603.13
2019-04-11T10:52:58.503Z,100598.00
2019-04-11T10:55:48.090Z,100600.11
2019-04-11T10:58:19.074Z,100605.88
2019-04-11T11:00:55.668Z,100590.03
2019-04-11T11:03:30.727Z,100607.89
2019-04-11T11:05:59.656Z,100605.21
2019-04-11T11:09:12.225Z,100611.83
2019-04-11T11:11:48.431Z,100600.00
2019-04-11T11:14:55.907Z,100606.52
2019-04-11T11:18:34.973Z,100604.74
2019-04-11T11:21:01.709Z,100607.21
2019-04-11T11:23:56.127Z,100603.02
2019-04-11T11:26:43.366Z,100601.39
2019-04-11T11:29:37.582Z,100601.50
2019-04-11T11:32:16.757Z,100614.87
2019-04-11T11:35:05.242Z,100605.44
2019-04-11T11:37:49.183Z,100615.16
2019-04-11T11:40:38.538Z,100612.09
2019-04-11T11:43:30.925Z,100601.25
2019-04-11T11:46:16.069Z,100612.94
2019-04-11T11:48:59.195Z,100595.24
2019-04-11T11:51:33.271Z,100605.89
2019-04-11T11:54:19.907Z,100596.69
2019-04-11T11:56:48.940Z,100600.66
2019-04-11T11:59:23.038Z,100606.27
2019-04-11T12:01:56.071Z,100602.14
2019-04-11T12:04:48.761Z,100609.45
2019-04-11T12:07:17.460Z,100604.94
2019-04-11T12:10:02.981Z,100602.70
2019-04-11T12:12:37.995Z,100589.33
2019-04-11T12:15:31.325Z,100602.27
2019-04-11T12:18:21.648Z,100600.80
2019-04-11T12:21:01.251Z,100588.74
2019-04-11T12:23:56.279Z,100592.30
2019-04-11T12:26:16.798Z,100585.41
2019-04-11T12:29:04.547Z,100591.15
2019-04-11T12:31:34.988Z,100599.09
2019-04-11T12:34:24.730Z,100588.34
2019-04-11T12:36:53.323Z,100606.81
2019-04-11T12:39:49.647Z,100607.23
2019-04-11T12:42:19.501Z,100594.38
2019-04-11T12:45:06.410Z,100596.40
2019-04-11T12:47:38.502Z,100594.72
2019-04-11T12:50:29.080Z,100579.98
2019-04-11T12:53:03.401Z,100576.48
2019-04-11T12:55:49.085Z,100586.13
2019-04-11T12:58:41.799Z,100580.55
2019-04-11T13:01:32.438Z,100584.24
2019-04-11T13:04:30.944Z,100570.86
2019-04-11T13:07:32.506Z,100575.84
2019-04-11T13:10:11.852Z,100571.59
2019-04-11T13:13:38.837Z,100546.71
2019-04-11T13:16:12.896Z,100556.93
2019-04-11T13:19:02.204Z,100572.08
2019-04-11T13:21:46.213Z,100561.84
2019-04-11T13:24:31.564Z,100575.42
2019-04-11T13:27:36.339Z,100574.27
2019-04-11T13:30:22.986Z,100573.16
2019-04-11T13:33:05.503Z,100561.17
2019-04-11T13:35:39.818Z,100556.87
2019-04-11T13:38:17.317Z,100553.13
2019-04-11T13:41:04.083Z,100510.09
2019-04-11T13:43:57.210Z,100555.56
2019-04-11T13:46:46.452Z,100572.13
2019-04-11T13:49:36.338Z,100553.51
2019-04-11T13:52:31.296Z,100551.48
2019-04-11T13:55:01.953Z,100552.02
2019-04-11T13:57:58.032Z,100554.09
2019-04-11T14:00:45.503Z,100559.37
2019-04-11T14:03:41.498Z,100552.45
2019-04-11T14:06:15.414Z,100550.91
2019-04-11T14:09:22.299Z,100550.95
2019-04-11T14:11:51.362Z,100544.84
2019-04-11T14:14:21.502Z,100544.27
2019-04-11T14:16:58.425Z,100541.02
2019-04-11T14:19:45.448Z,100538.92
2019-04-11T14:22:13.760Z,100546.24
2019-04-11T14:25:11.429Z,100542.05
2019-04-11T14:27:36.816Z,100547.52
2019-04-11T14:30:33.002Z,100553.05
2019-04-11T14:33:01.046Z,100537.99
2019-04-11T14:35:39.293Z,100536.39
2019-04-11T14:38:16.448Z,100545.39
2019-04-11T14:41:09.835Z,100535.56
2019-04-11T14:43:43.809Z,100545.34
2019-04-11T14:46:29.749Z,100543.42
2019-04-11T14:49:05.679Z,100547.94
2019-04-11T14:51:59.316Z,100536.39
2019-04-11T14:54:33.212Z,100530.18
2019-04-11T14:57:24.278Z,100548.56
2019-04-11T14:59:59.034Z,100538.95
2019-04-11T15:02:50.051Z,100547.20
2019-04-11T15:05:39.852Z,100540.86
2019-04-11T15:08:08.749Z,100549.84
2019-04-11T15:11:09.694Z,100542.91
2019-04-11T15:13:37.933Z,100543.55
2019-04-11T15:16:30.810Z,100536.53
2019-04-11T15:19:00.383Z,100547.51
2019-04-11T15:21:45.988Z,100541.33
2019-04-11T15:24:15.877Z,100542.22
2019-04-11T15:27:01.387Z,100542.96
2019-04-11T15:29:36.503Z,100549.91
2019-04-11T15:32:22.294Z,100555.52
2019-04-11T15:34:58.490Z,100549.97
2019-04-11T15:37:51.219Z,100545.72
2019-04-11T15:40:21.823Z,100530.26
2019-04-11T15:43:14.288Z,100543.66
2019-04-11T15:45:51.789Z,100548.27
2019-04-11T15:48:36.809Z,100548.84
2019-04-11T15:51:23.498Z,100551.97
2019-04-11T15:54:15.989Z,100550.91
2019-04-11T15:56:51.962Z,100537.88
2019-04-11T15:59:38.909Z,100549.92
2019-04-11T16:02:16.078Z,100554.92
2019-04-11T16:05:07.949Z,100545.34
2019-04-11T16:08:12.744Z,100541.41
2019-04-11T16:10:48.111Z,100552.48
2019-04-11T16:13:32.769Z,100546.22
2019-04-11T16:16:06.805Z,100546.22
2019-04-11T16:18:48.335Z,100555.25
2019-04-11T16:21:23.936Z,100547.39
2019-04-11T16:24:01.384Z,100549.73
2019-04-11T16:26:40.757Z,100552.70
2019-04-11T16:29:20.650Z,100550.17
2019-04-11T16:31:47.771Z,100552.38
2019-04-11T16:34:48.749Z,100548.87
2019-04-11T16:37:17.581Z,100561.73
2019-04-11T16:40:00.786Z,100558.46
2019-04-11T16:42:42.639Z,100559.64
2019-04-11T16:45:38.477Z,100556.62
2019-04-11T16:48:06.062Z,100564.31
2019-04-11T16:50:33.116Z,100566.64
2019-04-11T16:53:00.396Z,100572.61
2019-04-11T16:55:27.782Z,100573.04
2019-04-11T16:57:55.243Z,100578.97
2019-04-11T17:00:22.405Z,100574.22
2019-04-11T17:02:49.721Z,100572.41
2019-04-11T17:05:16.772Z,100573.28
2019-04-11T17:07:56.746Z,100581.74
2019-04-11T17:10:43.395Z,100583.19
2019-04-11T17:13:13.110Z,100578.36
2019-04-11T17:15:40.364Z,100585.11
2019-04-11T17:18:07.523Z,100587.50
2019-04-11T17:20:36.150Z,100583.25
2019-04-11T17:23:07.476Z,100589.06
2019-04-11T17:25:34.975Z,100590.56
2019-04-11T17:28:02.259Z,100595.06
2019-04-11T17:30:29.554Z,100594.67
2019-04-11T17:32:57.962Z,100602.97
2019-04-11T17:35:25.273Z,100605.22
2019-04-11T17:37:52.775Z,100607.22
2019-04-11T17:40:21.227Z,100607.22
2019-04-11T17:42:48.399Z,100601.64
2019-04-11T17:45:15.607Z,100611.84
2019-04-11T17:47:44.927Z,100620.58
2019-04-11T17:50:12.896Z,100626.41
2019-04-11T17:52:43.001Z,100624.20
2019-04-11T17:55:11.209Z,100615.50
2019-04-11T17:57:40.865Z,100626.84
2019-04-11T18:00:12.047Z,100628.88
2019-04-11T18:02:41.495Z,100620.52
2019-04-11T18:05:08.953Z,100631.66
2019-04-11T18:07:38.317Z,100646.09
2019-04-11T18:10:05.820Z,100634.56
2019-04-11T18:12:34.413Z,100645.88
2019-04-11T18:15:03.497Z,100643.38
2019-04-11T18:17:32.721Z,100653.09
2019-04-11T18:20:00.559Z,100652.63
2019-04-11T18:22:29.547Z,100654.42
2019-04-11T18:24:57.747Z,100650.54
2019-04-11T18:27:24.902Z,100657.05
2019-04-11T18:29:53.644Z,100657.08
2019-04-11T18:32:22.645Z,100665.06
2019-04-11T18:34:52.824Z,100666.97
2019-04-11T18:37:19.955Z,100668.71
2019-04-11T18:39:49.340Z,100670.84
2019-04-11T18:42:16.529Z,100670.02
2019-04-11T18:44:43.603Z,100670.98
2019-04-11T18:47:10.724Z,100676.35
2019-04-11T18:49:46.335Z,100678.67
2019-04-11T18:52:19.975Z,100679.84
2019-04-11T18:54:44.288Z,100680.52
2019-04-11T18:57:13.289Z,100693.84
2019-04-11T18:59:40.778Z,100693.84
2019-04-11T19:02:09.950Z,100705.20
2019-04-11T19:04:36.953Z,100698.03
2019-04-11T19:07:05.126Z,100698.34
2019-04-11T19:09:34.449Z,100703.14
2019-04-11T19:12:04.921Z,100705.39
2019-04-11T19:14:32.417Z,100708.63
2019-04-11T19:17:01.659Z,100711.84
2019-04-11T19:19:33.679Z,100721.03
2019-04-11T19:22:00.837Z,100709.84
2019-04-11T19:24:43.156Z,100715.65
2019-04-11T19:27:14.055Z,100724.89
2019-04-11T19:29:41.508Z,100730.61
2019-04-11T19:32:08.626Z,100723.16
2019-04-11T19:34:41.116Z,100735.66
2019-04-11T19:37:11.797Z,100724.36
2019-04-11T19:39:37.612Z,100719.94
2019-04-11T19:42:08.872Z,100726.39
2019-04-11T19:44:35.215Z,100725.19
2019-04-11T19:47:02.567Z,100735.87
2019-04-11T19:49:29.722Z,100731.08
2019-04-11T19:51:58.665Z,100736.56
2019-04-11T19:54:32.959Z,100739.90
2019-04-11T19:57:04.949Z,100741.14
2019-04-11T19:59:32.383Z,100741.91
2019-04-11T20:02:00.227Z,100754.27
2019-04-11T20:04:27.779Z,100751.69
2019-04-11T20:06:55.423Z,100755.50
2019-04-11T20:09:22.549Z,100757.73
2019-04-11T20:11:49.767Z,100761.59
2019-04-11T20:14:19.243Z,100755.15
2019-04-11T20:16:48.908Z,100760.89
2019-04-11T20:19:17.468Z,100760.38
2019-04-11T20:21:44.935Z,100758.06
2019-04-11T20:24:14.367Z,100764.17
2019-04-11T20:26:41.130Z,100752.80
2019-04-11T20:29:10.985Z,100760.12
2019-04-11T20:31:38.278Z,100758.71
2019-04-11T20:34:07.292Z,100757.78
2019-04-11T20:36:40.782Z,100763.13
2019-04-11T20:39:07.290Z,100758.56
2019-04-11T20:41:34.711Z,100755.61
2019-04-11T20:44:12.970Z,100771.86
2019-04-11T20:46:40.269Z,100765.93
2019-04-11T20:49:07.739Z,100765.19
2019-04-11T20:51:35.069Z,100774.75
2019-04-11T20:54:07.054Z,100777.62
2019-04-11T20:56:34.623Z,100777.09
2019-04-11T20:59:01.700Z,100777.73
2019-04-11T21:01:28.790Z,100774.48
2019-04-11T21:04:00.115Z,100780.17
2019-04-11T21:06:26.116Z,100777.59
2019-04-11T21:08:53.167Z,100779.29
2019-04-11T21:11:20.338Z,100788.40
2019-04-11T21:13:47.399Z,100785.95
2019-04-11T21:16:14.449Z,100784.02
2019-04-11T21:18:41.758Z,100779.81
2019-04-11T21:21:08.820Z,100779.41
2019-04-11T21:23:35.835Z,100779.67
2019-04-11T21:26:03.327Z,100776.47
2019-04-11T21:28:30.947Z,100780.30
2019-04-11T21:31:00.090Z,100783.34
2019-04-11T21:33:28.849Z,100786.64
2019-04-11T21:36:01.422Z,100791.69
2019-04-11T21:38:30.855Z,100789.68
2019-04-11T21:40:59.495Z,100788.48
2019-04-11T21:43:26.549Z,100792.00
2019-04-11T21:45:55.430Z,100792.13
2019-04-11T21:48:23.235Z,100796.39
2019-04-11T21:50:50.573Z,100800.24
2019-04-11T21:53:17.676Z,100808.37
2019-04-11T21:55:47.315Z,100807.14
2019-04-11T21:58:19.447Z,100809.63
2019-04-11T22:00:51.786Z,100810.10
2019-04-11T22:03:23.999Z,100809.63
2019-04-11T22:05:49.142Z,100811.50
2019-04-11T22:08:16.406Z,100815.45
2019-04-11T22:10:43.442Z,100812.81
2019-04-11T22:13:10.835Z,100818.22
2019-04-11T22:15:42.045Z,100819.84
2019-04-11T22:18:07.373Z,100816.24
2019-04-11T22:20:34.525Z,100811.13
2019-04-11T22:23:01.712Z,100817.17
2019-04-11T22:25:28.751Z,100812.80
2019-04-11T22:27:57.222Z,100812.98
2019-04-11T22:30:25.404Z,100820.95
2019-04-11T22:33:00.993Z,100817.45
2019-04-11T22:35:29.110Z,100824.11
2019-04-11T22:37:59.680Z,100816.84
2019-04-11T22:40:25.994Z,100825.23
2019-04-11T22:42:53.178Z,100824.52
2019-04-11T22:45:20.201Z,100822.38
2019-04-11T22:47:47.254Z,100829.51
2019-04-11T22:50:14.294Z,100826.74
2019-04-11T22:52:43.999Z,100829.54
2019-04-11T22:55:11.856Z,100828.75
2019-04-11T22:57:40.888Z,100831.83
2019-04-11T23:00:09.624Z,100828.84
2019-04-11T23:02:48.939Z,100829.36
2019-04-11T23:05:17.427Z,100831.20
2019-04-11T23:07:45.934Z,100830.65
2019-04-11T23:10:17.117Z,100835.35
2019-04-11T23:12:45.787Z,100837.30
2019-04-11T23:15:15.195Z,100835.52
2019-04-11T23:17:43.933Z,100839.58
2019-04-11T23:20:11.922Z,100844.80
2019-04-11T23:22:42.803Z,100841.50
2019-04-11T23:25:09.456Z,100848.84
2019-04-11T23:27:36.530Z,100851.55
2019-04-11T23:30:04.588Z,100856.25
2019-04-11T23:32:32.966Z,100853.34
2019-04-11T23:35:00.029Z,100854.20
2019-04-11T23:37:27.083Z,100852.73
2019-04-11T23:39:54.142Z,100852.11
2019-04-11T23:42:22.974Z,100844.20
2019-04-11T23:44:50.476Z,100852.48
2019-04-11T23:47:20.091Z,100851.63
2019-04-11T23:49:49.626Z,100848.41
2019-04-11T23:52:16.957Z,100850.55
2019-04-11T23:54:44.042Z,100849.27
2019-04-11T23:57:11.078Z,100847.63
2019-04-11T23:59:40.029Z,100851.55
